Weather observations for the past three days for
Page, Page Municipal Airport
| Date | Time (mst) | Wind (mph) | Vis. (mi.) | Weather | Sky Cond. | Temperature (ºF) | Relative Humidity | Wind Chill (°F) | Heat Index (°F) | Pressure | Precipitation (in) | ||||||
|---|---|---|---|---|---|---|---|---|---|---|---|---|---|---|---|---|---|
| Air | Dwpt | 6 hour | altimeter (in) | sea level (mb) | 1 hr | 3 hr | 6 hr | ||||||||||
| Max. | Min. | ||||||||||||||||
| 03 | 10:53 | Vrbl 3 | 10.00 | Fair | CLR | 71.1 | 21.9 | 73 | 55 | 16% | 30.02 | 1011.3 | |||||
| 03 | 09:53 | NW 6 | 10.00 | Fair | CLR | 68 | 21 | 17% | 30.05 | 1012.5 | |||||||
| 03 | 08:53 | Vrbl 3 | 10.00 | Fair | CLR | 63 | 21 | 20% | 30.06 | 1013.1 | |||||||
| 03 | 07:53 | W 3 | 10.00 | A Few Clouds | FEW120 | 60.1 | 23 | 24% | 30.06 | 1013.2 | |||||||
| 03 | 06:53 | Vrbl 3 | 10.00 | Fair | CLR | 59 | 23 | 25% | 30.04 | 1012.5 | |||||||
| 03 | 05:53 | SW 3 | 10.00 | Fair | CLR | 55.9 | 21 | 26% | 30.04 | 1012.4 | |||||||
| 03 | 04:53 | SE 5 | 10.00 | Fair | CLR | 57 | 19.9 | 64.9 | 55.9 | 24% | 30.02 | 1011.6 | |||||
| 03 | 03:53 | S 9 | 10.00 | Fair | CLR | 60.1 | 19 | 20% | 30.02 | 1011.3 | |||||||
| 03 | 02:53 | S 3 | 10.00 | Fair | CLR | 57 | 21.9 | 26% | 30.02 | 1011.7 | |||||||
| 03 | 01:53 | Calm | 10.00 | Fair | CLR | 59 | 21 | 23% | 30.03 | 1011.9 | |||||||
| 03 | 00:53 | SE 6 | 10.00 | Fair | CLR | 60.1 | 19.9 | 21% | 30.03 | 1012.2 | |||||||
| 02 | 23:53 | S 3 | 10.00 | Fair | CLR | 64 | 21.9 | 20% | 30.04 | 1012.1 | |||||||
| 02 | 22:53 | S 6 | 10.00 | Fair | CLR | 64 | 21.9 | 75 | 64 | 20% | 30.03 | 1012.0 | |||||
| 02 | 21:53 | SE 5 | 10.00 | Fair | CLR | 64.9 | 21.9 | 19% | 30.03 | 1012.2 | |||||||
| 02 | 20:53 | Calm | 10.00 | Fair | CLR | 66.9 | 23 | 19% | 30.02 | 1012.2 | |||||||
| 02 | 19:53 | Calm | 10.00 | Fair | CLR | 70 | 23 | 17% | 30 | 1011.6 | |||||||
| 02 | 18:53 | NE 6 | 10.00 | Fair | CLR | 72 | 23 | 16% | 30 | 1011.4 | |||||||
| 02 | 17:53 | Vrbl 7 | 10.00 | Fair | CLR | 73.9 | 23 | 15% | 30 | 1011.6 | |||||||
| 02 | 16:53 | N 10 | 10.00 | Fair | CLR | 75 | 23 | 75.9 | 66.9 | 14% | 75 | 30.01 | 1011.7 | ||||
| 02 | 15:53 | N 13 G 18 | 10.00 | Fair | CLR | 75 | 24.1 | 15% | 75 | 30.02 | 1012.2 | ||||||
| 02 | 14:53 | N 10 G 21 | 10.00 | Fair | CLR | 73.9 | 25 | 16% | 30.06 | 1013.4 | |||||||
| 02 | 13:53 | Vrbl 3 G 20 | 10.00 | Fair | CLR | 72 | 23 | 16% | 30.09 | 1014.4 | |||||||
| 02 | 12:53 | N 7 | 10.00 | Fair | CLR | 72 | 21.9 | 15% | 30.11 | 1015.1 | |||||||
| 02 | 11:53 | N 7 | 10.00 | Fair | CLR | 70 | 21 | 16% | 30.14 | 1016.2 | |||||||
| 02 | 10:53 | Vrbl 6 | 10.00 | Fair | CLR | 66.9 | 19 | 66.9 | 48.9 | 16% | 30.16 | 1016.9 | |||||
| 02 | 09:53 | Calm | 10.00 | Fair | CLR | 64 | 16 | 15% | 30.17 | 1017.3 | |||||||
| 02 | 08:53 | NW 6 | 10.00 | Fair | CLR | 59 | 12 | 15% | 30.17 | 1017.5 | |||||||
| 02 | 07:53 | Vrbl 3 | 10.00 | Fair | CLR | 55.9 | 12 | 17% | 30.16 | 1017.3 | |||||||
| 02 | 06:53 | SE 5 | 10.00 | Fair | CLR | 54 | 9 | 16% | 30.15 | 1016.8 | |||||||
| 02 | 05:53 | Calm | 10.00 | Fair | CLR | 48.9 | 9 | 20% | 30.12 | 1016.0 | |||||||
| 02 | 04:53 | Calm | 10.00 | Fair | CLR | 50 | 10 | 61 | 48.9 | 20% | 30.11 | 1015.5 | |||||
| 02 | 03:53 | SE 5 | 10.00 | Fair | CLR | 51.1 | 12 | 21% | 30.11 | 1015.5 | |||||||
| 02 | 02:53 | SW 3 | 10.00 | Fair | CLR | 52 | 12 | 20% | 30.1 | 1015.3 | |||||||
| 02 | 01:53 | SW 3 | 10.00 | Fair | CLR | 53.1 | 14 | 21% | 30.1 | 1015.0 | |||||||
| 02 | 00:53 | W 5 | 10.00 | Fair | CLR | 54 | 16 | 22% | 30.1 | 1014.9 | |||||||
| 01 | 23:53 | SW 3 | 10.00 | Fair | CLR | 55 | 15.1 | 21% | 30.09 | 1014.7 | |||||||
| 01 | 22:53 | SE 3 | 10.00 | Fair | CLR | 61 | 10.9 | 70 | 60.1 | 14% | 30.08 | 1013.9 | |||||
| 01 | 21:53 | E 3 | 10.00 | Fair | CLR | 62.1 | 16 | 17% | 30.07 | 1014.1 | |||||||
| 01 | 20:53 | N 3 | 10.00 | Fair | CLR | 64 | 19 | 18% | 30.05 | 1013.1 | |||||||
| 01 | 19:53 | Calm | 10.00 | Fair | CLR | 64.9 | 19 | 17% | 30.02 | 1012.3 | |||||||
| 01 | 18:53 | NW 7 | 10.00 | Fair | CLR | 68 | 18 | 15% | 30.01 | 1011.6 | |||||||
| 01 | 17:53 | N 5 | 10.00 | Fair | CLR | 70 | 18 | 14% | 30 | 1011.3 | |||||||
| 01 | 16:53 | N 9 G 20 | 10.00 | Fair | CLR | 71.1 | 19 | 72 | 64.9 | 14% | 30 | 1011.3 | |||||
| 01 | 15:53 | N 14 G 23 | 10.00 | Fair | CLR | 70 | 19 | 14% | 29.99 | 1011.0 | |||||||
| 01 | 14:53 | Calm | 10.00 | Partly Cloudy | SCT110 | 70 | 19 | 14% | 30 | 1011.2 | |||||||
| 01 | 13:53 | Calm | 10.00 | Fair | CLR | 69.1 | 19.9 | 15% | 30.02 | 1011.7 | |||||||
| 01 | 12:53 | NE 9 G 22 | 10.00 | Fair | CLR | 69.1 | 19.9 | 15% | 30.03 | 1012.0 | |||||||
| 01 | 11:53 | N 9 G 22 | 10.00 | Fair | CLR | 66 | 21 | 18% | 30.05 | 1012.8 | |||||||
| 01 | 10:53 | Vrbl 3 | 10.00 | Fair | CLR | 66 | 21 | 66 | 55 | 18% | 30.06 | 1013.2 | |||||
| 01 | 09:53 | Vrbl 3 | 10.00 | Fair | CLR | 62.1 | 21.9 | 21% | 30.07 | 1013.7 | |||||||
| 01 | 08:53 | NE 5 | 10.00 | Fair | CLR | 61 | 21.9 | 22% | 30.06 | 1013.5 | |||||||
| 01 | 07:53 | N 3 | 10.00 | Fair | CLR | 59 | 25 | 27% | 30.05 | 1013.3 | |||||||
| 01 | 06:53 | N 6 | 10.00 | Fair | CLR | 57.9 | 25 | 28% | 30.04 | 1012.8 | |||||||
| 01 | 05:53 | N 3 | 10.00 | A Few Clouds | FEW110 | 55.9 | 25 | 30% | 30.01 | 1011.7 | |||||||
| 01 | 04:53 | E 7 | 10.00 | Fair | CLR | 57 | 23 | 64.9 | 55.9 | 27% | 30 | 1011.0 | |||||
| 01 | 03:53 | Calm | 10.00 | Mostly Cloudy | BKN110 | 57.9 | 21.9 | 25% | 29.98 | 1010.6 | |||||||
| 01 | 02:53 | N 6 | 10.00 | Mostly Cloudy | BKN120 | 60.1 | 23 | 24% | 29.97 | 1009.9 | |||||||
| 01 | 01:53 | NW 5 | 10.00 | Fair | CLR | 61 | 21 | 21% | 29.97 | 1009.8 | |||||||
| 01 | 00:53 | N 8 | 10.00 | Fair | CLR | 62.1 | 19.9 | 20% | 29.96 | 1009.8 | |||||||
| 30 | 23:53 | N 8 | 10.00 | Fair | CLR | 63 | 19 | 18% | 29.96 | 1009.8 | |||||||
| 30 | 22:53 | N 13 | 10.00 | Mostly Cloudy | BKN110 | 66 | 18 | 73 | 64 | 16% | 29.93 | 1008.5 | |||||
| 30 | 21:53 | NW 5 | 10.00 | Mostly Cloudy | BKN120 | 64 | 18 | 17% | 29.92 | 1008.5 | |||||||
| 30 | 20:53 | NE 3 | 10.00 | Fair | CLR | 64.9 | 15.1 | 14% | 29.9 | 1007.9 | |||||||
| 30 | 19:53 | Calm | 10.00 | Fair | CLR | 66 | 15.1 | 14% | 29.88 | 1007.3 | |||||||
| 30 | 18:53 | NE 7 | 10.00 | Fair | CLR | 68 | 15.1 | 13% | 29.87 | 1006.8 | |||||||
| 30 | 17:53 | NE 12 | 10.00 | Fair | CLR | 71.1 | 16 | 12% | 29.86 | 1006.9 | |||||||
| 30 | 16:53 | E 9 G 17 | 10.00 | Fair | CLR | 72 | 16 | 73 | 64.9 | 12% | 29.87 | 1006.8 | |||||
| 30 | 15:53 | NE 8 | 10.00 | Fair | CLR | 72 | 16 | 12% | 29.88 | 1007.2 | |||||||
| 30 | 14:53 | N 13 G 20 | 10.00 | Fair | CLR | 72 | 15.1 | 11% | 29.91 | 1008.1 | |||||||
| 30 | 13:53 | NE 8 | 10.00 | Fair | CLR | 71.1 | 15.1 | 12% | 29.93 | 1008.8 | |||||||
| 30 | 12:53 | Calm | 10.00 | Fair | CLR | 68 | 18 | 15% | 29.95 | 1009.4 | |||||||
| 30 | 11:53 | N 9 | 10.00 | Fair | CLR | 66.9 | 19 | 16% | 29.98 | 1010.3 | |||||||
| Date | Time (mst) | Wind (mph) | Vis. (mi.) | Weather | Sky Cond. | Air | Dwpt | Max. | Min. | Relative Humidity | Wind Chill (°F) | Heat Index (°F) | altimeter (in) | sea level (mb) | 1 hr | 3 hr | 6 hr |
| 6 hour | |||||||||||||||||
| Temperature (ºF) | Pressure | Precipitation (in) | |||||||||||||||